createdAt,value
2023-07-24T00:01:16.089Z,89.48
2023-07-24T00:03:42.962Z,89.73
2023-07-24T00:06:10.222Z,90.22
2023-07-24T00:08:37.442Z,90.74
2023-07-24T00:11:06.503Z,90.69
2023-07-24T00:13:33.414Z,91.12
2023-07-24T00:16:00.327Z,91.40
2023-07-24T00:18:27.325Z,91.55
2023-07-24T00:20:54.064Z,91.51
2023-07-24T00:23:21.016Z,91.61
2023-07-24T00:25:47.879Z,91.37
2023-07-24T00:28:14.698Z,91.16
2023-07-24T00:30:42.084Z,91.06
2023-07-24T00:33:08.811Z,91.05
2023-07-24T00:35:35.592Z,90.99
2023-07-24T00:38:02.388Z,91.25
2023-07-24T00:40:29.079Z,91.15
2023-07-24T00:42:55.694Z,91.07
2023-07-24T00:45:23.829Z,90.87
2023-07-24T00:47:51.161Z,90.85
2023-07-24T00:50:18.949Z,90.79
2023-07-24T00:52:46.133Z,90.92
2023-07-24T00:55:14.224Z,90.93
2023-07-24T00:57:41.340Z,90.98
2023-07-24T01:00:09.333Z,90.99
2023-07-24T01:02:36.450Z,91.03
2023-07-24T01:05:03.333Z,91.23
2023-07-24T01:07:30.808Z,91.27
2023-07-24T01:09:57.705Z,91.11
2023-07-24T01:12:36.478Z,91.11
2023-07-24T01:15:25.853Z,90.94
2023-07-24T01:18:00.542Z,90.84
2023-07-24T01:20:30.723Z,90.70
2023-07-24T01:23:51.674Z,90.70
2023-07-24T01:26:19.013Z,90.25
2023-07-24T01:28:46.887Z,89.83
2023-07-24T01:31:13.704Z,89.53
2023-07-24T01:33:40.685Z,89.22
2023-07-24T01:36:08.605Z,89.11
2023-07-24T01:38:36.333Z,88.96
2023-07-24T01:41:04.290Z,88.73
2023-07-24T01:43:31.537Z,88.49
2023-07-24T01:45:58.813Z,88.33
2023-07-24T01:48:25.870Z,88.27
2023-07-24T01:50:52.902Z,88.19
2023-07-24T01:53:19.633Z,88.05
2023-07-24T01:55:46.375Z,87.91
2023-07-24T01:58:12.997Z,87.88
2023-07-24T02:00:39.844Z,87.79
2023-07-24T02:03:06.872Z,87.85
2023-07-24T02:05:33.600Z,87.90
2023-07-24T02:08:00.629Z,87.87
2023-07-24T02:10:27.684Z,87.54
2023-07-24T02:12:54.814Z,87.45
2023-07-24T02:15:21.678Z,87.53
2023-07-24T02:17:48.516Z,87.38
2023-07-24T02:20:15.746Z,87.42
2023-07-24T02:22:42.817Z,87.19
2023-07-24T02:25:10.109Z,87.13
2023-07-24T02:27:37.321Z,87.00
2023-07-24T02:30:04.836Z,87.13
2023-07-24T02:32:31.367Z,87.02
2023-07-24T02:34:58.096Z,87.09
2023-07-24T02:37:25.002Z,86.97
2023-07-24T02:39:53.342Z,87.04
2023-07-24T02:42:20.203Z,87.33
2023-07-24T02:44:46.863Z,87.67
2023-07-24T02:47:13.940Z,88.05
2023-07-24T02:49:41.386Z,88.38
2023-07-24T02:52:08.453Z,88.33
2023-07-24T02:54:35.356Z,88.49
2023-07-24T02:57:03.401Z,88.48
2023-07-24T02:59:31.095Z,88.33
2023-07-24T03:01:58.212Z,88.17
2023-07-24T03:04:25.209Z,88.17
2023-07-24T03:06:51.981Z,88.08
2023-07-24T03:09:18.617Z,87.89
2023-07-24T03:11:45.489Z,87.86
2023-07-24T03:14:12.316Z,87.66
2023-07-24T03:16:39.130Z,87.72
2023-07-24T03:19:05.912Z,87.63
2023-07-24T03:21:32.723Z,87.59
2023-07-24T03:23:59.697Z,87.49
2023-07-24T03:26:26.381Z,87.59
2023-07-24T03:28:53.234Z,87.46
2023-07-24T03:31:20.227Z,87.31
2023-07-24T03:33:47.177Z,87.25
2023-07-24T03:36:13.801Z,87.20
2023-07-24T03:38:40.831Z,87.19
2023-07-24T03:41:07.624Z,87.09
2023-07-24T03:43:34.556Z,87.04
2023-07-24T03:46:01.508Z,86.84
2023-07-24T03:48:28.406Z,86.82
2023-07-24T03:51:02.273Z,86.60
2023-07-24T03:53:29.580Z,86.42
2023-07-24T03:55:59.565Z,86.35
2023-07-24T03:58:26.515Z,86.27
2023-07-24T04:00:53.149Z,86.09
2023-07-24T04:03:20.492Z,85.88
2023-07-24T04:05:47.332Z,85.64
2023-07-24T04:08:14.152Z,85.52
2023-07-24T04:10:41.047Z,85.50
2023-07-24T04:13:07.782Z,85.26
2023-07-24T04:15:34.420Z,85.23
2023-07-24T04:18:01.050Z,85.27
2023-07-24T04:20:27.905Z,85.29
2023-07-24T04:22:54.820Z,85.34
2023-07-24T04:25:21.673Z,85.20
2023-07-24T04:27:48.442Z,85.23
2023-07-24T04:30:15.587Z,85.48
2023-07-24T04:32:42.798Z,85.58
2023-07-24T04:35:09.998Z,85.77
2023-07-24T04:37:36.968Z,86.02
2023-07-24T04:40:03.844Z,86.09
2023-07-24T04:42:30.690Z,86.35
2023-07-24T04:44:57.463Z,86.46
2023-07-24T04:47:24.593Z,86.79
2023-07-24T04:49:51.568Z,86.94
2023-07-24T04:52:18.533Z,87.05
2023-07-24T04:54:45.557Z,86.99
2023-07-24T04:57:12.448Z,87.19
2023-07-24T04:59:39.192Z,87.38
2023-07-24T05:02:05.982Z,87.53
2023-07-24T05:04:32.680Z,87.51
2023-07-24T05:06:59.803Z,87.74
2023-07-24T05:09:26.709Z,87.75
2023-07-24T05:11:53.751Z,87.77
2023-07-24T05:14:20.441Z,87.78
2023-07-24T05:16:47.413Z,87.66
2023-07-24T05:19:14.386Z,87.58
2023-07-24T05:21:41.120Z,87.46
2023-07-24T05:24:07.783Z,86.99
2023-07-24T05:26:34.407Z,86.50
2023-07-24T05:29:01.311Z,85.90
2023-07-24T05:31:28.437Z,85.55
2023-07-24T05:33:55.107Z,84.93
2023-07-24T05:36:21.749Z,84.49
2023-07-24T05:38:48.529Z,83.83
2023-07-24T05:41:15.237Z,82.64
2023-07-24T05:43:42.072Z,81.97
2023-07-24T05:46:08.898Z,81.41
2023-07-24T05:48:35.860Z,80.76
2023-07-24T05:51:03.382Z,80.40
2023-07-24T05:53:30.577Z,79.59
2023-07-24T05:56:02.043Z,79.70
2023-07-24T05:58:29.168Z,80.26
2023-07-24T06:00:59.147Z,81.01
2023-07-24T06:03:26.136Z,81.84
2023-07-24T06:05:56.535Z,82.84
2023-07-24T06:08:23.946Z,83.74
2023-07-24T06:10:51.577Z,84.35
2023-07-24T06:13:18.657Z,85.33
2023-07-24T06:15:45.612Z,85.45
2023-07-24T06:18:12.414Z,85.81
2023-07-24T06:20:39.294Z,85.85
2023-07-24T06:23:06.067Z,85.84
2023-07-24T06:25:33.601Z,85.57
2023-07-24T06:28:00.745Z,85.10
2023-07-24T06:30:27.493Z,85.25
2023-07-24T06:32:54.415Z,84.99
2023-07-24T06:35:21.240Z,84.63
2023-07-24T06:37:47.877Z,84.25
2023-07-24T06:40:15.065Z,83.55
2023-07-24T06:42:41.695Z,83.59
2023-07-24T06:45:09.017Z,83.02
2023-07-24T06:47:35.928Z,82.46
2023-07-24T06:50:03.876Z,81.65
2023-07-24T06:52:30.737Z,80.70
2023-07-24T06:54:59.125Z,80.28
2023-07-24T06:57:26.102Z,80.28
2023-07-24T06:59:55.122Z,80.58
2023-07-24T07:02:22.440Z,80.32
2023-07-24T07:04:49.330Z,79.92
2023-07-24T07:11:03.616Z,79.45
2023-07-24T07:13:30.419Z,79.67
2023-07-24T07:15:57.070Z,79.75
2023-07-24T07:18:24.297Z,79.37
2023-07-24T07:20:53.274Z,79.43
2023-07-24T07:23:20.525Z,79.80
2023-07-24T07:25:47.800Z,80.31
2023-07-24T07:28:15.810Z,80.48
2023-07-24T07:30:45.753Z,80.19
2023-07-24T07:33:13.041Z,80.45
2023-07-24T07:35:39.632Z,80.81
2023-07-24T07:38:06.497Z,82.29
2023-07-24T07:40:51.010Z,84.34
2023-07-24T07:43:18.048Z,85.42
2023-07-24T07:45:44.890Z,87.04
2023-07-24T07:48:11.709Z,88.34
2023-07-24T07:50:38.649Z,89.32
2023-07-24T07:53:05.359Z,90.48
2023-07-24T07:55:31.847Z,91.54
2023-07-24T07:57:58.624Z,91.63
2023-07-24T08:00:25.396Z,93.30
2023-07-24T08:02:52.339Z,94.89
2023-07-24T08:05:21.425Z,96.40
2023-07-24T08:07:48.858Z,97.28
2023-07-24T08:10:17.751Z,97.97
2023-07-24T08:12:45.043Z,98.60
2023-07-24T08:15:12.454Z,99.18
2023-07-24T08:17:39.325Z,99.90
2023-07-24T08:20:07.032Z,100.00
2023-07-24T08:22:33.801Z,100.00
2023-07-24T08:25:00.535Z,100.00
2023-07-24T08:27:27.336Z,100.00
2023-07-24T08:29:54.136Z,100.00
2023-07-24T08:32:21.838Z,100.00
2023-07-24T08:34:48.967Z,100.00
2023-07-24T08:37:16.147Z,100.00
2023-07-24T08:39:43.072Z,100.00
2023-07-24T08:42:13.973Z,100.00
2023-07-24T08:44:41.413Z,100.00
2023-07-24T08:47:11.487Z,100.00
2023-07-24T08:49:41.248Z,100.00
2023-07-24T08:52:10.653Z,100.00
2023-07-24T08:54:40.013Z,100.00
2023-07-24T08:57:10.074Z,100.00
2023-07-24T08:59:37.168Z,100.00
2023-07-24T09:02:03.924Z,100.00
2023-07-24T09:04:30.856Z,100.00
2023-07-24T09:06:59.115Z,100.00
2023-07-24T09:09:32.374Z,100.00
2023-07-24T09:12:00.702Z,100.00
2023-07-24T09:14:32.602Z,99.89
2023-07-24T09:17:10.330Z,99.46
2023-07-24T09:19:38.116Z,98.82
2023-07-24T09:22:19.211Z,96.82
2023-07-24T09:24:57.391Z,97.26
2023-07-24T09:27:31.688Z,97.17
2023-07-24T09:29:59.337Z,96.02
2023-07-24T09:32:27.511Z,95.25
2023-07-24T09:34:57.942Z,93.13
2023-07-24T09:37:30.451Z,92.45
2023-07-24T09:40:00.322Z,91.06
2023-07-24T09:42:52.894Z,87.56
2023-07-24T09:45:26.821Z,86.83
2023-07-24T09:48:00.121Z,86.93
2023-07-24T09:50:29.786Z,85.90
2023-07-24T09:52:58.019Z,82.84
2023-07-24T09:55:31.276Z,82.63
2023-07-24T09:57:59.947Z,82.31
2023-07-24T10:00:26.806Z,83.69
2023-07-24T10:02:54.089Z,84.45
2023-07-24T10:05:21.169Z,83.56
2023-07-24T10:07:48.584Z,81.28
2023-07-24T10:10:15.970Z,79.37
2023-07-24T10:12:42.926Z,79.38
2023-07-24T10:15:09.899Z,77.73
2023-07-24T10:17:41.598Z,77.85
2023-07-24T10:20:13.205Z,76.79
2023-07-24T10:22:44.019Z,76.16
2023-07-24T10:25:11.645Z,75.05
2023-07-24T10:27:48.410Z,73.56
2023-07-24T10:30:28.256Z,73.63
2023-07-24T10:33:12.809Z,73.62
2023-07-24T10:35:44.751Z,74.61
2023-07-24T10:38:12.565Z,74.49
2023-07-24T10:40:41.806Z,73.78
2023-07-24T10:43:10.709Z,73.28
2023-07-24T10:45:51.206Z,73.12
2023-07-24T10:48:19.057Z,70.42
2023-07-24T10:50:50.086Z,68.24
2023-07-24T10:53:22.170Z,67.83
2023-07-24T10:55:49.527Z,68.04
2023-07-24T10:58:16.395Z,67.99
2023-07-24T11:00:44.859Z,66.79
2023-07-24T11:03:12.843Z,66.33
2023-07-24T11:05:47.545Z,64.60
2023-07-24T11:08:16.505Z,64.38
2023-07-24T11:10:50.264Z,64.61
2023-07-24T11:13:18.427Z,65.72
2023-07-24T11:15:45.887Z,65.75
2023-07-24T11:18:13.236Z,66.45
2023-07-24T11:21:00.010Z,66.13
2023-07-24T11:23:26.878Z,66.16
2023-07-24T11:25:55.303Z,65.39
2023-07-24T11:28:21.973Z,64.73
2023-07-24T11:30:48.644Z,64.20
2023-07-24T11:33:19.333Z,63.44
2023-07-24T11:35:47.027Z,63.92
2023-07-24T11:38:14.596Z,64.43
2023-07-24T11:40:43.763Z,61.71
2023-07-24T11:43:24.953Z,60.60
2023-07-24T11:45:53.967Z,60.18
2023-07-24T11:48:21.993Z,60.00
2023-07-24T11:50:50.708Z,59.08
2023-07-24T11:53:26.584Z,58.30
2023-07-24T11:55:55.500Z,57.93
2023-07-24T11:58:23.084Z,59.14
2023-07-24T12:00:52.896Z,61.42
2023-07-24T12:03:28.602Z,65.01
2023-07-24T12:05:55.781Z,67.42
2023-07-24T12:08:32.094Z,70.05
2023-07-24T12:10:59.173Z,72.62
2023-07-24T12:13:25.964Z,73.89
2023-07-24T12:15:52.811Z,75.47
2023-07-24T12:18:19.800Z,77.72
2023-07-24T12:20:46.365Z,78.75
2023-07-24T12:23:13.170Z,77.08
2023-07-24T12:25:40.105Z,74.95
2023-07-24T12:28:06.877Z,73.52
2023-07-24T12:30:33.560Z,73.35
2023-07-24T12:33:00.536Z,73.79
2023-07-24T12:35:27.321Z,73.70
2023-07-24T12:37:54.004Z,73.25
2023-07-24T12:40:20.721Z,73.91
2023-07-24T12:42:48.233Z,74.72
2023-07-24T12:45:14.941Z,75.97
2023-07-24T12:47:41.570Z,78.73
2023-07-24T12:50:08.714Z,79.55
2023-07-24T12:52:35.308Z,80.20
2023-07-24T12:55:03.030Z,81.58
2023-07-24T12:57:30.656Z,84.44
2023-07-24T12:59:57.762Z,87.44
2023-07-24T13:02:24.820Z,89.53
2023-07-24T13:04:51.552Z,90.96
2023-07-24T13:07:18.486Z,91.53
2023-07-24T13:09:45.694Z,93.11
2023-07-24T13:12:12.485Z,94.31
2023-07-24T13:14:41.259Z,95.32
2023-07-24T13:17:09.651Z,95.53
2023-07-24T13:19:36.439Z,95.15
2023-07-24T13:22:03.449Z,94.55
2023-07-24T13:24:30.279Z,93.81
2023-07-24T13:26:57.036Z,92.69
2023-07-24T13:29:25.905Z,92.72
2023-07-24T13:31:53.436Z,91.01
2023-07-24T13:34:21.143Z,89.82
2023-07-24T13:36:48.522Z,89.70
2023-07-24T13:39:15.194Z,89.66
2023-07-24T13:41:42.377Z,88.01
2023-07-24T13:44:09.150Z,86.96
2023-07-24T13:46:39.465Z,86.75
2023-07-24T13:49:07.299Z,86.41
2023-07-24T13:51:33.950Z,86.01
2023-07-24T13:54:02.872Z,86.74
2023-07-24T13:56:32.335Z,87.15
2023-07-24T13:58:59.560Z,88.51
2023-07-24T14:01:26.488Z,96.31
2023-07-24T14:03:54.116Z,100.00
2023-07-24T14:06:20.910Z,100.00
2023-07-24T14:08:47.647Z,100.00
2023-07-24T14:11:14.447Z,100.00
2023-07-24T14:13:41.359Z,100.00
2023-07-24T14:16:08.017Z,100.00
2023-07-24T14:18:34.785Z,100.00
2023-07-24T14:21:02.553Z,100.00
2023-07-24T14:23:29.477Z,100.00
2023-07-24T14:25:56.154Z,100.00
2023-07-24T14:28:23.081Z,100.00
2023-07-24T14:30:49.872Z,100.00
2023-07-24T14:33:16.868Z,100.00
2023-07-24T14:35:44.094Z,100.00
2023-07-24T14:38:11.015Z,100.00
2023-07-24T14:40:37.776Z,100.00
2023-07-24T14:43:07.580Z,100.00
2023-07-24T14:45:35.131Z,100.00
2023-07-24T14:48:02.082Z,100.00
2023-07-24T14:50:29.733Z,100.00
2023-07-24T14:52:56.645Z,100.00
2023-07-24T14:55:23.453Z,100.00
2023-07-24T14:57:50.562Z,100.00
2023-07-24T15:00:17.895Z,100.00
2023-07-24T15:02:44.948Z,100.00
2023-07-24T15:05:12.021Z,100.00
2023-07-24T15:07:39.200Z,100.00
2023-07-24T15:10:06.901Z,100.00
2023-07-24T15:12:33.772Z,100.00
2023-07-24T15:15:00.375Z,100.00
2023-07-24T15:17:27.419Z,100.00
2023-07-24T15:19:54.677Z,100.00
2023-07-24T15:22:21.747Z,100.00
2023-07-24T15:24:48.745Z,100.00
2023-07-24T15:27:16.001Z,100.00
2023-07-24T15:29:42.727Z,100.00
2023-07-24T15:32:09.862Z,100.00
2023-07-24T15:34:39.620Z,100.00
2023-07-24T15:37:07.115Z,100.00
2023-07-24T15:39:33.873Z,100.00
2023-07-24T15:42:00.751Z,100.00
2023-07-24T15:44:27.537Z,100.00
2023-07-24T15:46:54.476Z,100.00
2023-07-24T15:49:21.304Z,100.00
2023-07-24T15:51:47.999Z,100.00
2023-07-24T15:54:14.688Z,100.00
2023-07-24T15:56:42.019Z,100.00
2023-07-24T15:59:10.792Z,100.00
2023-07-24T16:01:37.775Z,100.00
2023-07-24T16:04:04.712Z,100.00
2023-07-24T16:06:31.381Z,98.10
2023-07-24T16:08:58.693Z,87.41
2023-07-24T16:11:25.442Z,80.86
2023-07-24T16:13:52.721Z,69.80
2023-07-24T16:16:19.611Z,71.55
2023-07-24T16:18:46.236Z,68.03
2023-07-24T16:21:12.778Z,66.44
2023-07-24T16:23:39.623Z,65.62
2023-07-24T16:26:06.484Z,62.47
2023-07-24T16:28:33.907Z,59.84
2023-07-24T16:31:00.790Z,55.31
2023-07-24T16:33:27.813Z,51.78
2023-07-24T16:35:54.709Z,54.90
2023-07-24T16:38:23.434Z,57.19
2023-07-24T16:40:52.264Z,58.26
2023-07-24T16:43:19.539Z,61.23
2023-07-24T16:48:20.106Z,62.78
2023-07-24T16:50:47.406Z,62.94
2023-07-24T16:53:14.149Z,62.62
2023-07-24T16:55:41.071Z,61.82
2023-07-24T16:58:07.918Z,62.54
2023-07-24T17:00:35.325Z,62.07
2023-07-24T17:03:02.902Z,62.55
2023-07-24T17:05:29.830Z,64.09
2023-07-24T17:07:56.472Z,65.46
2023-07-24T17:10:23.228Z,67.41
2023-07-24T17:12:49.852Z,70.37
2023-07-24T17:15:16.935Z,72.37
2023-07-24T17:17:45.532Z,74.44
2023-07-24T17:20:12.192Z,76.38
2023-07-24T17:22:39.206Z,78.89
2023-07-24T17:25:06.337Z,80.57
2023-07-24T17:27:35.747Z,82.54
2023-07-24T17:30:02.295Z,84.34
2023-07-24T17:32:29.163Z,85.56
2023-07-24T17:34:55.768Z,86.42
2023-07-24T17:37:36.315Z,87.66
2023-07-24T17:40:06.178Z,89.15
2023-07-24T17:42:33.184Z,88.95
2023-07-24T17:44:59.976Z,87.67
2023-07-24T17:47:26.909Z,87.76
2023-07-24T17:50:05.866Z,87.58
2023-07-24T17:52:33.996Z,88.56
2023-07-24T17:55:00.708Z,89.57
2023-07-24T17:57:27.820Z,86.94
2023-07-24T17:59:54.643Z,83.71
2023-07-24T18:02:21.566Z,79.09
2023-07-24T18:04:48.265Z,76.54
2023-07-24T18:07:15.071Z,72.03
2023-07-24T18:09:41.675Z,71.23
2023-07-24T18:12:08.634Z,72.17
2023-07-24T18:14:35.536Z,72.82
2023-07-24T18:17:02.231Z,75.09
2023-07-24T18:19:29.409Z,77.11
2023-07-24T18:21:56.011Z,79.14
2023-07-24T18:24:23.092Z,81.21
2023-07-24T18:26:50.037Z,82.86
2023-07-24T18:29:17.142Z,84.38
2023-07-24T18:31:43.823Z,86.47
2023-07-24T18:34:10.675Z,88.01
2023-07-24T18:36:37.471Z,89.31
2023-07-24T18:39:04.214Z,90.79
2023-07-24T18:41:31.012Z,92.03
2023-07-24T18:43:58.098Z,92.82
2023-07-24T18:46:24.794Z,93.68
2023-07-24T18:48:53.106Z,94.74
2023-07-24T18:51:21.242Z,95.86
2023-07-24T18:53:48.784Z,96.86
2023-07-24T18:56:15.677Z,97.50
2023-07-24T18:58:44.790Z,98.23
2023-07-24T19:01:12.496Z,98.96
2023-07-24T19:03:39.504Z,99.82
2023-07-24T19:06:08.007Z,100.00
2023-07-24T19:08:34.874Z,97.81
2023-07-24T19:11:02.552Z,97.17
2023-07-24T19:13:32.722Z,95.83
2023-07-24T19:16:00.807Z,96.13
2023-07-24T19:18:27.595Z,97.20
2023-07-24T19:20:54.392Z,98.37
2023-07-24T19:23:21.330Z,99.20
2023-07-24T19:25:48.497Z,99.91
2023-07-24T19:28:15.581Z,100.00
2023-07-24T19:30:42.431Z,100.00
2023-07-24T19:33:10.981Z,100.00
2023-07-24T19:35:38.797Z,100.00
2023-07-24T19:38:05.617Z,100.00
2023-07-24T19:40:32.519Z,100.00
2023-07-24T19:42:59.249Z,100.00
2023-07-24T19:45:27.586Z,100.00
2023-07-24T19:47:54.690Z,100.00
2023-07-24T19:50:21.689Z,100.00
2023-07-24T19:52:50.205Z,100.00
2023-07-24T19:55:17.315Z,100.00
2023-07-24T19:57:46.417Z,100.00
2023-07-24T20:00:13.575Z,100.00
2023-07-24T20:02:41.100Z,100.00
2023-07-24T20:05:08.477Z,100.00
2023-07-24T20:07:35.418Z,100.00
2023-07-24T20:10:02.270Z,100.00
2023-07-24T20:12:29.376Z,100.00
2023-07-24T20:14:56.242Z,100.00
2023-07-24T20:17:22.918Z,100.00
2023-07-24T20:19:49.666Z,100.00
2023-07-24T20:22:16.478Z,100.00
2023-07-24T20:24:43.596Z,100.00
2023-07-24T20:27:10.584Z,100.00
2023-07-24T20:29:37.610Z,100.00
2023-07-24T20:32:05.000Z,100.00
2023-07-24T20:34:31.739Z,100.00
2023-07-24T20:36:58.561Z,100.00
2023-07-24T20:39:26.540Z,100.00
2023-07-24T20:41:53.605Z,100.00
2023-07-24T20:44:20.314Z,100.00
2023-07-24T20:46:47.114Z,100.00
2023-07-24T20:49:14.006Z,100.00
2023-07-24T20:51:41.873Z,100.00
2023-07-24T20:54:08.817Z,100.00
2023-07-24T20:56:35.433Z,100.00
2023-07-24T20:59:03.223Z,100.00
2023-07-24T21:01:30.165Z,100.00
2023-07-24T21:03:57.194Z,100.00
2023-07-24T21:06:24.045Z,100.00
2023-07-24T21:08:50.723Z,100.00
2023-07-24T21:11:17.928Z,100.00
2023-07-24T21:13:44.957Z,100.00
2023-07-24T21:16:12.193Z,100.00
2023-07-24T21:18:39.108Z,100.00
2023-07-24T21:21:08.422Z,100.00
2023-07-24T21:23:35.730Z,100.00
2023-07-24T21:26:02.416Z,100.00
2023-07-24T21:28:29.133Z,100.00
2023-07-24T21:30:55.731Z,100.00
2023-07-24T21:33:22.755Z,100.00
2023-07-24T21:36:00.537Z,100.00
2023-07-24T21:38:27.566Z,100.00
2023-07-24T21:40:54.336Z,100.00
2023-07-24T21:43:22.045Z,100.00
2023-07-24T21:45:49.753Z,100.00
2023-07-24T21:48:16.576Z,100.00
2023-07-24T21:50:47.908Z,100.00
2023-07-24T21:53:14.727Z,100.00
2023-07-24T21:55:41.572Z,100.00
2023-07-24T21:58:08.150Z,100.00
2023-07-24T22:00:36.031Z,100.00
2023-07-24T22:03:02.904Z,100.00
2023-07-24T22:05:29.621Z,100.00
2023-07-24T22:07:56.370Z,100.00
2023-07-24T22:10:23.590Z,100.00
2023-07-24T22:12:50.490Z,100.00
2023-07-24T22:15:17.470Z,100.00
2023-07-24T22:17:44.513Z,100.00
2023-07-24T22:20:17.145Z,100.00
2023-07-24T22:22:53.561Z,100.00
2023-07-24T22:25:20.639Z,100.00
2023-07-24T22:27:47.569Z,100.00
2023-07-24T22:30:14.328Z,100.00
2023-07-24T22:32:41.118Z,100.00
2023-07-24T22:35:08.546Z,100.00
2023-07-24T22:37:35.280Z,100.00
2023-07-24T22:40:02.128Z,100.00
2023-07-24T22:42:28.863Z,100.00
2023-07-24T22:44:55.620Z,100.00
2023-07-24T22:47:22.427Z,100.00
2023-07-24T22:49:49.160Z,100.00
2023-07-24T22:52:15.804Z,100.00
2023-07-24T22:54:43.037Z,100.00
2023-07-24T22:57:09.675Z,100.00
2023-07-24T22:59:36.452Z,100.00
2023-07-24T23:02:03.135Z,100.00
2023-07-24T23:04:29.933Z,100.00
2023-07-24T23:06:56.813Z,100.00
2023-07-24T23:09:24.042Z,100.00
2023-07-24T23:11:50.863Z,100.00
2023-07-24T23:14:17.483Z,100.00
2023-07-24T23:16:44.350Z,100.00
2023-07-24T23:19:10.889Z,100.00
2023-07-24T23:21:37.552Z,100.00
2023-07-24T23:24:05.015Z,100.00
2023-07-24T23:26:31.774Z,100.00
2023-07-24T23:28:59.594Z,100.00
2023-07-24T23:31:26.421Z,100.00
2023-07-24T23:33:53.262Z,100.00
2023-07-24T23:36:20.076Z,100.00
2023-07-24T23:38:46.759Z,100.00
2023-07-24T23:41:13.528Z,100.00
2023-07-24T23:43:40.132Z,100.00
2023-07-24T23:46:14.565Z,100.00
2023-07-24T23:48:42.127Z,100.00
2023-07-24T23:51:16.483Z,100.00
2023-07-24T23:53:43.981Z,100.00
2023-07-24T23:56:10.683Z,100.00
2023-07-24T23:58:37.404Z,100.00
